Time;durP1;ratioP1;P1;durP2;ratioP2;P2;SDS_P1;SDS_P2;PMS_P1;PMS_P2;Temp;Humidity;BMP_temperature;BMP_pressure;BME280_temperature;BME280_humidity;BME280_pressure;Samples;Min_cycle;Max_cycle;Signal;HPM_P1;HPM_P2
2023/04/04 00:00:46;;;;;;;12.60;2.58;;;;;;;;;;5025527;28;20144;-59
2023/04/04 00:03:12;;;;;;;3.65;2.08;;;;;;;;;;5026427;28;20508;-57
2023/04/04 00:05:39;;;;;;;4.15;2.60;;;;;;;;;;5025572;28;20050;-59
2023/04/04 00:08:06;;;;;;;4.80;2.50;;;;;;;;;;5025739;28;20050;-58
2023/04/04 00:10:32;;;;;;;4.18;2.28;;;;;;;;;;5025349;28;20625;-58
2023/04/04 00:12:58;;;;;;;6.40;3.20;;;;;;;;;;5026316;28;20056;-59
2023/04/04 00:15:26;;;;;;;6.90;2.50;;;;;;;;;;5026019;28;20569;-56
2023/04/04 00:17:52;;;;;;;12.18;4.03;;;;;;;;;;5026299;28;20061;-60
2023/04/04 00:20:18;;;;;;;9.60;3.53;;;;;;;;;;5025213;28;20056;-59
2023/04/04 00:22:45;;;;;;;10.50;4.90;;;;;;;;;;5026170;28;20570;-59
2023/04/04 00:25:11;;;;;;;9.23;4.63;;;;;;;;;;5025661;28;20124;-59
2023/04/04 00:27:37;;;;;;;7.68;3.47;;;;;;;;;;5024647;28;20050;-59
2023/04/04 00:30:04;;;;;;;5.70;2.90;;;;;;;;;;5024676;28;20050;-58
2023/04/04 00:32:30;;;;;;;7.28;3.25;;;;;;;;;;5025010;28;20519;-59
2023/04/04 00:34:57;;;;;;;6.15;2.63;;;;;;;;;;5025451;28;20049;-59
2023/04/04 00:37:24;;;;;;;3.70;2.22;;;;;;;;;;5026175;28;20061;-56
2023/04/04 00:39:50;;;;;;;3.33;2.50;;;;;;;;;;5022600;28;20546;-58
2023/04/04 00:42:17;;;;;;;5.47;2.50;;;;;;;;;;5010023;28;20152;-58
2023/04/04 00:44:43;;;;;;;3.17;2.28;;;;;;;;;;5024273;28;20573;-59
2023/04/04 00:47:10;;;;;;;3.28;2.30;;;;;;;;;;5025548;28;20053;-58
2023/04/04 00:49:36;;;;;;;3.45;2.25;;;;;;;;;;5024067;28;20050;-59
2023/04/04 00:52:05;;;;;;;7.43;2.53;;;;;;;;;;5025685;28;20054;-59
2023/04/04 00:54:32;;;;;;;3.53;2.08;;;;;;;;;;5024009;28;20053;-59
2023/04/04 00:56:59;;;;;;;7.72;2.80;;;;;;;;;;5025267;28;20612;-59
2023/04/04 00:59:26;;;;;;;8.95;3.33;;;;;;;;;;5024889;28;20050;-59
2023/04/04 01:01:53;;;;;;;3.78;2.58;;;;;;;;;;5025834;28;20054;-59
2023/04/04 01:04:20;;;;;;;4.82;2.65;;;;;;;;;;5024538;28;20137;-59
2023/04/04 01:06:46;;;;;;;3.92;2.72;;;;;;;;;;5025489;28;20054;-58
2023/04/04 01:09:12;;;;;;;6.18;2.85;;;;;;;;;;5024842;28;20053;-59
2023/04/04 01:11:39;;;;;;;8.07;2.58;;;;;;;;;;5024769;28;20475;-58
2023/04/04 01:14:06;;;;;;;10.15;3.05;;;;;;;;;;5024321;28;20145;-58
2023/04/04 01:16:32;;;;;;;6.20;3.00;;;;;;;;;;5026017;28;20046;-57
2023/04/04 01:18:58;;;;;;;4.53;2.85;;;;;;;;;;5024637;28;20058;-59
2023/04/04 01:21:26;;;;;;;5.60;2.63;;;;;;;;;;5008536;28;20061;-59
2023/04/04 01:24:00;;;;;;;4.63;2.88;;;;;;;;;;5024205;28;20061;-59
2023/04/04 01:26:27;;;;;;;5.88;3.00;;;;;;;;;;5025033;28;20104;-58
2023/04/04 01:28:53;;;;;;;3.83;2.47;;;;;;;;;;5025311;28;20057;-59
2023/04/04 01:31:22;;;;;;;4.60;2.65;;;;;;;;;;5025465;28;20061;-59
2023/04/04 01:33:54;;;;;;;5.78;2.70;;;;;;;;;;5023767;28;20065;-58
2023/04/04 01:36:24;;;;;;;4.22;2.40;;;;;;;;;;5025104;28;20058;-58
2023/04/04 01:38:58;;;;;;;7.65;2.75;;;;;;;;;;5023461;28;20152;-60
2023/04/04 01:41:26;;;;;;;4.97;2.65;;;;;;;;;;5025030;28;20053;-53
2023/04/04 01:43:52;;;;;;;5.13;2.88;;;;;;;;;;5024027;28;20061;-59
2023/04/04 01:46:19;;;;;;;6.43;2.95;;;;;;;;;;5023370;28;20056;-59
2023/04/04 01:48:45;;;;;;;4.45;2.67;;;;;;;;;;5024946;28;20130;-58
2023/04/04 01:53:40;;;;;;;8.70;3.03;;;;;;;;;;5054218;28;20149;-75
2023/04/04 01:56:06;;;;;;;4.65;2.97;;;;;;;;;;5063584;28;20045;-75
2023/04/04 01:58:32;;;;;;;5.78;2.67;;;;;;;;;;5056119;28;20075;-75
2023/04/04 02:00:59;;;;;;;5.28;2.72;;;;;;;;;;5061909;28;20063;-75
2023/04/04 02:03:25;;;;;;;7.57;2.65;;;;;;;;;;5063478;28;20056;-74
2023/04/04 02:05:52;;;;;;;6.00;3.65;;;;;;;;;;5063687;28;20080;-74
2023/04/04 02:08:19;;;;;;;4.65;2.47;;;;;;;;;;5063814;28;20149;-74
2023/04/04 02:10:45;;;;;;;10.88;5.22;;;;;;;;;;5062007;28;20057;-75
2023/04/04 02:13:11;;;;;;;3.60;2.53;;;;;;;;;;5058491;28;20068;-75
2023/04/04 02:15:38;;;;;;;6.47;3.75;;;;;;;;;;5043775;28;20056;-75
2023/04/04 02:18:04;;;;;;;5.65;2.92;;;;;;;;;;5054326;28;20135;-75
2023/04/04 02:20:31;;;;;;;6.03;3.22;;;;;;;;;;5063294;28;20131;-75
2023/04/04 02:22:57;;;;;;;4.55;2.60;;;;;;;;;;5067564;28;20049;-74
2023/04/04 02:25:24;;;;;;;4.47;2.80;;;;;;;;;;5068279;28;20053;-75
2023/04/04 02:27:50;;;;;;;5.13;3.15;;;;;;;;;;5067007;28;20060;-74
2023/04/04 02:30:18;;;;;;;5.78;2.70;;;;;;;;;;5066319;28;20092;-75
2023/04/04 02:32:45;;;;;;;5.65;2.95;;;;;;;;;;5067782;28;20494;-77
2023/04/04 02:35:12;;;;;;;5.07;2.85;;;;;;;;;;5065775;28;20059;-77
2023/04/04 02:37:38;;;;;;;4.95;3.03;;;;;;;;;;5067712;28;20057;-74
2023/04/04 02:40:05;;;;;;;5.15;3.08;;;;;;;;;;5067807;28;20072;-75
2023/04/04 02:42:32;;;;;;;3.95;3.20;;;;;;;;;;5068021;28;20053;-74
2023/04/04 02:44:58;;;;;;;5.32;3.05;;;;;;;;;;5068823;28;20524;-76
2023/04/04 02:47:25;;;;;;;5.55;3.17;;;;;;;;;;5068279;28;20443;-76
2023/04/04 02:49:51;;;;;;;5.57;3.80;;;;;;;;;;5066443;28;20472;-74
2023/04/04 02:52:19;;;;;;;7.68;3.92;;;;;;;;;;5063235;28;20061;-74
2023/04/04 02:54:45;;;;;;;6.20;3.53;;;;;;;;;;5065650;28;20107;-74
2023/04/04 02:57:12;;;;;;;4.38;3.13;;;;;;;;;;5067122;28;20053;-76
2023/04/04 02:59:38;;;;;;;8.10;3.05;;;;;;;;;;5066641;28;20501;-75
2023/04/04 03:02:04;;;;;;;5.90;3.40;;;;;;;;;;5064932;28;20522;-74
2023/04/04 03:04:31;;;;;;;4.00;3.17;;;;;;;;;;5067238;28;20053;-76
2023/04/04 03:06:58;;;;;;;4.55;3.03;;;;;;;;;;5067110;28;20494;-76
2023/04/04 03:09:24;;;;;;;7.55;5.05;;;;;;;;;;5067280;28;20084;-74
2023/04/04 03:11:51;;;;;;;5.20;3.47;;;;;;;;;;5065763;28;20510;-74
2023/04/04 03:14:17;;;;;;;6.18;3.80;;;;;;;;;;5064570;28;20049;-74
2023/04/04 03:16:44;;;;;;;6.55;3.60;;;;;;;;;;5065142;28;20577;-74
2023/04/04 03:19:10;;;;;;;7.22;3.90;;;;;;;;;;5054051;28;20080;-75
2023/04/04 03:21:36;;;;;;;7.13;3.80;;;;;;;;;;5051898;28;20406;-76
2023/04/04 03:24:03;;;;;;;5.65;3.50;;;;;;;;;;5059422;28;20666;-74
2023/04/04 03:26:29;;;;;;;6.40;3.38;;;;;;;;;;5062587;28;20049;-74
2023/04/04 03:28:56;;;;;;;6.07;3.47;;;;;;;;;;5066222;28;20623;-76
2023/04/04 03:31:22;;;;;;;5.18;3.50;;;;;;;;;;5063490;28;20577;-74
2023/04/04 03:33:49;;;;;;;6.88;3.47;;;;;;;;;;5056347;28;20053;-75
2023/04/04 03:36:15;;;;;;;6.22;3.58;;;;;;;;;;5065135;28;20143;-76
2023/04/04 03:38:41;;;;;;;5.05;4.35;;;;;;;;;;5063213;28;20494;-74
2023/04/04 03:41:08;;;;;;;5.80;3.33;;;;;;;;;;5065679;28;20075;-74
2023/04/04 03:43:34;;;;;;;5.57;3.85;;;;;;;;;;5064187;28;20576;-74
2023/04/04 03:46:01;;;;;;;5.50;3.60;;;;;;;;;;5066247;28;20077;-76
2023/04/04 03:48:28;;;;;;;6.85;3.28;;;;;;;;;;5064614;28;20053;-74
2023/04/04 03:50:58;;;;;;;6.38;3.35;;;;;;;;;;5066098;28;20053;-74
2023/04/04 03:53:25;;;;;;;7.47;4.10;;;;;;;;;;5065390;28;20072;-75
2023/04/04 03:55:51;;;;;;;6.93;3.72;;;;;;;;;;5065407;28;20087;-74
2023/04/04 03:58:18;;;;;;;7.00;3.83;;;;;;;;;;5059337;28;20056;-74
2023/04/04 04:00:44;;;;;;;6.43;4.00;;;;;;;;;;5062977;28;20076;-74
2023/04/04 04:03:11;;;;;;;8.05;3.20;;;;;;;;;;5065281;28;20556;-76
2023/04/04 04:05:41;;;;;;;10.20;4.10;;;;;;;;;;5064605;28;20087;-75
2023/04/04 04:08:07;;;;;;;5.55;3.78;;;;;;;;;;5063935;28;20076;-75
2023/04/04 04:10:34;;;;;;;6.20;3.40;;;;;;;;;;5063402;28;20093;-74
2023/04/04 04:13:00;;;;;;;5.28;3.45;;;;;;;;;;5062932;28;20059;-74
2023/04/04 04:15:26;;;;;;;6.63;3.55;;;;;;;;;;5066044;28;20082;-74
2023/04/04 04:17:53;;;;;;;8.95;3.83;;;;;;;;;;5063068;28;20052;-74
2023/04/04 04:20:19;;;;;;;8.07;4.05;;;;;;;;;;5064085;28;20159;-75
2023/04/04 04:22:48;;;;;;;5.63;3.85;;;;;;;;;;5064091;28;20485;-74
2023/04/04 04:25:17;;;;;;;7.93;3.60;;;;;;;;;;5057636;28;20068;-74
2023/04/04 04:27:44;;;;;;;8.57;3.95;;;;;;;;;;5064725;28;20049;-74
2023/04/04 04:30:11;;;;;;;7.22;3.83;;;;;;;;;;5063565;28;20049;-74
2023/04/04 04:32:38;;;;;;;4.82;3.40;;;;;;;;;;5060500;28;20153;-74
2023/04/04 04:35:05;;;;;;;6.07;4.05;;;;;;;;;;5055055;28;20172;-75
2023/04/04 04:37:31;;;;;;;4.85;3.60;;;;;;;;;;5065037;28;20088;-74
2023/04/04 04:39:59;;;;;;;9.52;4.53;;;;;;;;;;5061995;28;21212;-74
2023/04/04 04:42:26;;;;;;;7.97;3.55;;;;;;;;;;5065296;28;20088;-74
2023/04/04 04:44:52;;;;;;;10.90;4.43;;;;;;;;;;5062678;28;20647;-74
2023/04/04 04:47:19;;;;;;;9.18;4.45;;;;;;;;;;5064109;28;20053;-74
2023/04/04 04:49:48;;;;;;;5.70;4.40;;;;;;;;;;5063286;28;20053;-75
2023/04/04 04:52:14;;;;;;;6.53;4.03;;;;;;;;;;5062881;28;20587;-74
2023/04/04 04:54:42;;;;;;;7.05;4.43;;;;;;;;;;5063464;28;20485;-76
2023/04/04 04:57:08;;;;;;;9.82;5.30;;;;;;;;;;5063825;28;20088;-76
2023/04/04 04:59:35;;;;;;;9.98;6.28;;;;;;;;;;5064275;28;20052;-76
2023/04/04 05:02:02;;;;;;;9.43;6.13;;;;;;;;;;5063604;28;20063;-75
2023/04/04 05:04:28;;;;;;;12.65;6.93;;;;;;;;;;5065078;28;20212;-75
2023/04/04 05:06:55;;;;;;;13.50;7.38;;;;;;;;;;5064361;28;20591;-76
2023/04/04 05:09:21;;;;;;;11.07;7.40;;;;;;;;;;5058605;28;20056;-73
2023/04/04 05:11:47;;;;;;;10.63;7.07;;;;;;;;;;5061026;28;20571;-75
2023/04/04 05:14:14;;;;;;;14.98;8.50;;;;;;;;;;5060198;28;20049;-74
2023/04/04 05:16:40;;;;;;;13.40;7.45;;;;;;;;;;5057868;28;20053;-76
2023/04/04 05:19:06;;;;;;;11.15;6.65;;;;;;;;;;5054063;28;20065;-76
2023/04/04 05:21:33;;;;;;;16.90;7.00;;;;;;;;;;5054264;28;20532;-76
2023/04/04 05:23:59;;;;;;;10.35;6.32;;;;;;;;;;5062562;28;20057;-76
2023/04/04 05:26:26;;;;;;;10.32;5.88;;;;;;;;;;5061938;28;20584;-74
2023/04/04 05:28:52;;;;;;;7.47;5.10;;;;;;;;;;5061741;28;20055;-76
2023/04/04 05:31:19;;;;;;;15.35;5.03;;;;;;;;;;5064399;28;20498;-76
2023/04/04 05:33:45;;;;;;;6.63;5.65;;;;;;;;;;5061950;28;20545;-76
2023/04/04 05:36:12;;;;;;;10.15;5.30;;;;;;;;;;5043573;28;20493;-77
2023/04/04 05:38:38;;;;;;;10.98;5.43;;;;;;;;;;5062102;28;20538;-76
2023/04/04 05:41:05;;;;;;;7.95;4.70;;;;;;;;;;5065144;28;20055;-76
2023/04/04 05:43:31;;;;;;;7.35;5.05;;;;;;;;;;5065915;28;20053;-76
2023/04/04 05:45:58;;;;;;;8.40;4.88;;;;;;;;;;5065402;28;20080;-76
2023/04/04 05:48:24;;;;;;;10.60;4.75;;;;;;;;;;5064658;28;20634;-75
2023/04/04 05:50:50;;;;;;;9.18;5.00;;;;;;;;;;5067030;28;20144;-76
2023/04/04 05:53:17;;;;;;;10.52;5.63;;;;;;;;;;5053656;28;20153;-76
2023/04/04 05:55:43;;;;;;;10.93;6.18;;;;;;;;;;5059087;28;20061;-76
2023/04/04 05:58:09;;;;;;;7.43;5.00;;;;;;;;;;5059778;28;20428;-76
2023/04/04 06:00:38;;;;;;;7.55;4.75;;;;;;;;;;5057228;28;20053;-76
2023/04/04 06:03:05;;;;;;;9.90;4.78;;;;;;;;;;5064644;28;20053;-75
2023/04/04 06:05:31;;;;;;;7.72;4.68;;;;;;;;;;5063869;28;20590;-75
2023/04/04 06:07:58;;;;;;;8.73;4.80;;;;;;;;;;5061127;28;20060;-75
2023/04/04 06:10:25;;;;;;;8.98;5.70;;;;;;;;;;5055054;28;20411;-76
2023/04/04 06:12:51;;;;;;;9.85;5.57;;;;;;;;;;5043643;28;20699;-75
2023/04/04 06:15:18;;;;;;;9.25;4.65;;;;;;;;;;5061207;28;20568;-75
2023/04/04 06:17:44;;;;;;;7.05;3.95;;;;;;;;;;5062766;28;20056;-75
2023/04/04 06:20:10;;;;;;;6.68;4.68;;;;;;;;;;5063845;28;20115;-75
2023/04/04 06:22:37;;;;;;;8.55;5.07;;;;;;;;;;5062214;28;20096;-74
2023/04/04 06:25:03;;;;;;;9.23;5.13;;;;;;;;;;5063087;28;20514;-75
2023/04/04 06:27:29;;;;;;;9.98;5.35;;;;;;;;;;5060806;28;20053;-76
2023/04/04 06:29:56;;;;;;;7.63;4.32;;;;;;;;;;5060590;28;20107;-75
2023/04/04 06:32:22;;;;;;;8.45;5.30;;;;;;;;;;5063544;28;20061;-76
2023/04/04 06:34:48;;;;;;;10.20;5.78;;;;;;;;;;5063708;28;20092;-74
2023/04/04 06:37:15;;;;;;;10.45;5.30;;;;;;;;;;5061955;28;20064;-75
2023/04/04 06:39:41;;;;;;;11.57;5.00;;;;;;;;;;5063173;28;20057;-75
2023/04/04 06:42:07;;;;;;;7.47;5.00;;;;;;;;;;5061019;28;20481;-75
2023/04/04 06:44:35;;;;;;;8.00;4.97;;;;;;;;;;5055917;28;20149;-75
2023/04/04 06:47:01;;;;;;;9.63;6.07;;;;;;;;;;5049329;28;20059;-74
2023/04/04 06:49:28;;;;;;;13.55;5.13;;;;;;;;;;5050857;28;20060;-74
2023/04/04 06:51:54;;;;;;;8.57;5.65;;;;;;;;;;5057433;28;20049;-74
2023/04/04 06:54:21;;;;;;;7.03;4.97;;;;;;;;;;5063573;28;20504;-74
2023/04/04 06:56:47;;;;;;;24.65;5.88;;;;;;;;;;5062682;28;20503;-74
2023/04/04 06:59:14;;;;;;;9.07;5.05;;;;;;;;;;5056488;28;20053;-74
2023/04/04 07:01:40;;;;;;;11.68;5.55;;;;;;;;;;5059296;28;20518;-74
2023/04/04 07:04:06;;;;;;;8.85;6.05;;;;;;;;;;5060888;28;20061;-74
2023/04/04 07:06:33;;;;;;;10.85;6.45;;;;;;;;;;5056994;28;20635;-75
2023/04/04 07:08:59;;;;;;;9.05;5.22;;;;;;;;;;5063151;28;20053;-74
2023/04/04 07:11:25;;;;;;;8.80;5.18;;;;;;;;;;5057911;28;20551;-74
2023/04/04 07:13:52;;;;;;;5.45;4.28;;;;;;;;;;5062061;28;20053;-75
2023/04/04 07:16:19;;;;;;;6.80;4.25;;;;;;;;;;5060186;28;20066;-75
2023/04/04 07:18:45;;;;;;;8.63;3.50;;;;;;;;;;5051097;28;20115;-75
2023/04/04 07:21:12;;;;;;;7.70;3.65;;;;;;;;;;5055788;28;20598;-83
2023/04/04 07:23:38;;;;;;;7.55;3.83;;;;;;;;;;5065842;28;20556;-76
2023/04/04 07:26:05;;;;;;;6.45;3.90;;;;;;;;;;5065955;28;20139;-75
2023/04/04 07:28:31;;;;;;;9.95;4.00;;;;;;;;;;5064029;28;20063;-75
2023/04/04 07:30:59;;;;;;;7.18;3.80;;;;;;;;;;5066030;28;20053;-74
2023/04/04 07:33:26;;;;;;;5.65;3.40;;;;;;;;;;5063708;28;20532;-76
2023/04/04 07:35:52;;;;;;;7.35;3.78;;;;;;;;;;5058720;28;20075;-74
2023/04/04 07:38:19;;;;;;;12.13;4.07;;;;;;;;;;5056274;28;20064;-75
2023/04/04 07:40:47;;;;;;;9.00;4.07;;;;;;;;;;5063208;28;20196;-75
2023/04/04 07:43:13;;;;;;;8.88;3.92;;;;;;;;;;5064447;28;20064;-75
2023/04/04 07:45:40;;;;;;;5.47;3.45;;;;;;;;;;5064901;28;20537;-75
2023/04/04 07:48:06;;;;;;;7.63;3.78;;;;;;;;;;5056758;28;20466;-75
2023/04/04 07:50:33;;;;;;;5.55;3.92;;;;;;;;;;5059365;28;20573;-74
2023/04/04 07:52:59;;;;;;;8.05;3.90;;;;;;;;;;5045678;28;20061;-74
2023/04/04 07:55:25;;;;;;;8.65;3.65;;;;;;;;;;5046065;28;20529;-75
2023/04/04 07:57:52;;;;;;;5.38;3.30;;;;;;;;;;5056931;28;20052;-75
2023/04/04 08:00:20;;;;;;;6.20;4.25;;;;;;;;;;5054776;28;20068;-75
2023/04/04 08:02:51;;;;;;;10.63;3.50;;;;;;;;;;5061014;28;20084;-74
2023/04/04 08:05:18;;;;;;;3.97;2.78;;;;;;;;;;5065030;28;20356;-74
2023/04/04 08:07:44;;;;;;;5.63;3.00;;;;;;;;;;5060183;28;20063;-76
2023/04/04 08:10:11;;;;;;;4.40;2.97;;;;;;;;;;5064596;28;20144;-75
2023/04/04 08:12:38;;;;;;;9.77;3.75;;;;;;;;;;5053125;28;20057;-74
2023/04/04 08:15:04;;;;;;;4.80;3.15;;;;;;;;;;5066179;28;20140;-74
2023/04/04 08:17:31;;;;;;;6.13;3.22;;;;;;;;;;5059304;28;20056;-75
2023/04/04 08:19:57;;;;;;;8.25;3.17;;;;;;;;;;5058694;28;20261;-75
2023/04/04 08:22:23;;;;;;;5.22;2.90;;;;;;;;;;5060796;28;20056;-75
2023/04/04 08:24:50;;;;;;;5.82;2.72;;;;;;;;;;5062880;28;20103;-73
2023/04/04 08:27:16;;;;;;;6.30;2.85;;;;;;;;;;5065961;28;20170;-74
2023/04/04 08:29:44;;;;;;;5.65;2.67;;;;;;;;;;5065856;28;20064;-74
2023/04/04 08:32:10;;;;;;;5.63;2.28;;;;;;;;;;5064954;28;20049;-74
2023/04/04 08:34:37;;;;;;;3.78;2.75;;;;;;;;;;5064808;28;20140;-74
2023/04/04 08:37:03;;;;;;;7.13;2.90;;;;;;;;;;5065590;28;20163;-75
2023/04/04 08:39:30;;;;;;;3.45;2.67;;;;;;;;;;5064365;28;20053;-74
2023/04/04 08:42:01;;;;;;;4.10;2.90;;;;;;;;;;5060682;28;20118;-74
2023/04/04 08:44:28;;;;;;;12.40;3.47;;;;;;;;;;5048560;28;20398;-74
2023/04/04 08:46:55;;;;;;;3.55;2.92;;;;;;;;;;5063941;28;20048;-74
2023/04/04 08:49:22;;;;;;;5.13;2.50;;;;;;;;;;5055851;28;20057;-76
2023/04/04 08:51:51;;;;;;;7.43;3.13;;;;;;;;;;5062091;28;20053;-74
2023/04/04 08:54:18;;;;;;;4.85;2.75;;;;;;;;;;5063421;28;20160;-75
2023/04/04 08:56:45;;;;;;;4.63;2.63;;;;;;;;;;5066452;28;20561;-76
2023/04/04 08:59:14;;;;;;;3.30;1.67;;;;;;;;;;5063978;28;20057;-75
2023/04/04 09:01:41;;;;;;;5.78;2.03;;;;;;;;;;5064359;28;20053;-75
2023/04/04 09:04:08;;;;;;;3.33;2.03;;;;;;;;;;5063511;28;20564;-76
2023/04/04 09:06:35;;;;;;;5.05;2.20;;;;;;;;;;5055938;28;20673;-75
2023/04/04 09:09:01;;;;;;;4.22;1.98;;;;;;;;;;5060053;28;20057;-75
2023/04/04 09:11:30;;;;;;;4.55;1.73;;;;;;;;;;5064480;28;20041;-75
2023/04/04 09:13:57;;;;;;;4.38;1.45;;;;;;;;;;5064309;28;20059;-76
2023/04/04 09:16:24;;;;;;;3.70;1.55;;;;;;;;;;5063647;28;20261;-74
2023/04/04 09:18:51;;;;;;;5.75;1.65;;;;;;;;;;5053863;28;20548;-75
2023/04/04 09:21:18;;;;;;;4.90;1.73;;;;;;;;;;5054530;28;20060;-75
2023/04/04 09:23:44;;;;;;;4.55;1.95;;;;;;;;;;5055962;28;20053;-76
2023/04/04 09:26:15;;;;;;;5.10;2.20;;;;;;;;;;5059017;28;20553;-75
2023/04/04 09:28:41;;;;;;;3.85;1.90;;;;;;;;;;5063944;28;20079;-75
2023/04/04 09:31:08;;;;;;;7.70;2.20;;;;;;;;;;5063085;28;20049;-75
2023/04/04 09:33:37;;;;;;;8.40;2.42;;;;;;;;;;5063728;28;20071;-75
2023/04/04 09:36:11;;;;;;;6.22;2.10;;;;;;;;;;5044990;28;20076;-74
2023/04/04 09:38:38;;;;;;;4.80;2.28;;;;;;;;;;5050955;28;20048;-76
2023/04/04 09:41:08;;;;;;;4.05;2.10;;;;;;;;;;5064411;28;20060;-75
2023/04/04 09:43:36;;;;;;;3.70;2.03;;;;;;;;;;5064430;28;20056;-76
2023/04/04 09:46:03;;;;;;;3.88;2.45;;;;;;;;;;5063889;28;20049;-76
2023/04/04 09:48:31;;;;;;;5.78;2.33;;;;;;;;;;5063542;28;20615;-76
2023/04/04 09:50:58;;;;;;;5.63;2.63;;;;;;;;;;5062447;28;20060;-75
2023/04/04 09:53:25;;;;;;;8.23;3.10;;;;;;;;;;5060861;28;20560;-76
2023/04/04 09:55:53;;;;;;;8.75;2.08;;;;;;;;;;5061407;28;20050;-75
2023/04/04 09:58:26;;;;;;;4.43;2.42;;;;;;;;;;5062366;28;20290;-76
2023/04/04 10:00:55;;;;;;;5.10;2.35;;;;;;;;;;5060620;28;20059;-76
2023/04/04 10:03:22;;;;;;;5.80;2.40;;;;;;;;;;5052244;28;20053;-77
2023/04/04 10:06:15;;;;;;;4.20;2.25;;;;;;;;;;5064197;28;20802;-77
2023/04/04 10:08:42;;;;;;;4.03;2.00;;;;;;;;;;5041747;28;20057;-77
2023/04/04 10:11:09;;;;;;;3.85;2.45;;;;;;;;;;5060893;28;20522;-76
2023/04/04 10:13:39;;;;;;;3.90;2.33;;;;;;;;;;5048216;28;20549;-76
2023/04/04 10:16:07;;;;;;;5.38;2.50;;;;;;;;;;5064177;28;20884;-78
2023/04/04 10:18:35;;;;;;;3.65;2.10;;;;;;;;;;5058059;28;20171;-79
2023/04/04 10:21:03;;;;;;;3.95;2.58;;;;;;;;;;5063931;28;20516;-76
2023/04/04 10:23:41;;;;;;;4.18;2.17;;;;;;;;;;5061021;28;20506;-77
2023/04/04 10:26:07;;;;;;;4.82;2.33;;;;;;;;;;5050659;28;20068;-77
2023/04/04 10:28:34;;;;;;;3.15;2.30;;;;;;;;;;5047578;28;20058;-78
2023/04/04 10:31:10;;;;;;;5.95;2.30;;;;;;;;;;5057398;28;20049;-76
2023/04/04 10:33:39;;;;;;;6.78;2.88;;;;;;;;;;5058139;28;20140;-77
2023/04/04 10:36:07;;;;;;;4.93;2.83;;;;;;;;;;5062578;28;20466;-77
2023/04/04 10:38:39;;;;;;;4.47;2.50;;;;;;;;;;5056662;28;20172;-77
2023/04/04 10:41:06;;;;;;;5.47;2.88;;;;;;;;;;5061004;28;20041;-78
2023/04/04 10:43:33;;;;;;;4.53;2.92;;;;;;;;;;5063021;28;20143;-78
2023/04/04 10:46:05;;;;;;;5.55;2.85;;;;;;;;;;5067333;28;20160;-79
2023/04/04 10:48:32;;;;;;;6.22;3.50;;;;;;;;;;5062909;28;20689;-79
2023/04/04 10:51:00;;;;;;;5.22;2.45;;;;;;;;;;5064741;28;20045;-78
2023/04/04 10:53:26;;;;;;;4.53;2.30;;;;;;;;;;5067252;28;20057;-79
2023/04/04 10:55:53;;;;;;;4.72;2.40;;;;;;;;;;5066292;28;20063;-79
2023/04/04 10:58:20;;;;;;;5.88;2.10;;;;;;;;;;5058527;28;20064;-79
2023/04/04 11:00:51;;;;;;;3.67;2.10;;;;;;;;;;5067089;28;20647;-79
2023/04/04 11:03:17;;;;;;;3.92;2.20;;;;;;;;;;5067859;28;20049;-79
2023/04/04 11:05:47;;;;;;;4.03;2.13;;;;;;;;;;5066702;28;20037;-79
2023/04/04 11:08:21;;;;;;;3.63;2.38;;;;;;;;;;5067483;28;20057;-78
2023/04/04 11:10:48;;;;;;;8.40;2.50;;;;;;;;;;5066502;28;20080;-78
2023/04/04 11:13:16;;;;;;;5.15;2.20;;;;;;;;;;5066528;28;20052;-78
2023/04/04 11:15:55;;;;;;;6.40;2.50;;;;;;;;;;5050535;28;20053;-78
2023/04/04 11:18:42;;;;;;;3.00;2.15;;;;;;;;;;5066570;28;20053;-78
2023/04/04 11:21:12;;;;;;;4.40;2.22;;;;;;;;;;5066766;28;20144;-78
2023/04/04 11:23:47;;;;;;;5.25;2.22;;;;;;;;;;5066896;28;20056;-78
2023/04/04 11:26:38;;;;;;;3.38;2.63;;;;;;;;;;5064534;28;20127;-77
2023/04/04 11:29:08;;;;;;;5.15;2.20;;;;;;;;;;5058106;28;20049;-78
2023/04/04 11:31:39;;;;;;;3.70;2.10;;;;;;;;;;5064568;28;20060;-79
2023/04/04 11:34:06;;;;;;;4.93;2.10;;;;;;;;;;5066622;28;20056;-79
2023/04/04 11:36:36;;;;;;;3.33;2.13;;;;;;;;;;5066385;28;20122;-78
2023/04/04 11:39:13;;;;;;;4.35;2.20;;;;;;;;;;5065812;28;20131;-78
2023/04/04 11:41:46;;;;;;;2.65;1.98;;;;;;;;;;5064433;28;20061;-78
2023/04/04 11:44:13;;;;;;;3.85;2.53;;;;;;;;;;5065014;28;20514;-79
2023/04/04 11:46:40;;;;;;;4.65;2.42;;;;;;;;;;5065064;28;20055;-80
2023/04/04 11:49:06;;;;;;;4.97;2.30;;;;;;;;;;5064209;28;20517;-77
2023/04/04 11:51:33;;;;;;;4.93;2.58;;;;;;;;;;5066710;28;20061;-78
2023/04/04 11:54:00;;;;;;;2.95;1.92;;;;;;;;;;5065005;28;20080;-78
2023/04/04 11:56:27;;;;;;;4.43;2.50;;;;;;;;;;5066273;28;20061;-78
2023/04/04 11:58:54;;;;;;;5.13;2.20;;;;;;;;;;5066569;28;20084;-79
2023/04/04 12:01:36;;;;;;;3.95;2.35;;;;;;;;;;5065461;28;20053;-79
2023/04/04 12:04:03;;;;;;;5.38;2.40;;;;;;;;;;5066692;28;20057;-79
2023/04/04 12:06:34;;;;;;;6.07;2.72;;;;;;;;;;5063890;28;20111;-76
2023/04/04 12:09:02;;;;;;;7.32;3.25;;;;;;;;;;5055155;28;20167;-80
2023/04/04 12:11:29;;;;;;;4.10;2.30;;;;;;;;;;5059530;28;20140;-78
2023/04/04 12:13:56;;;;;;;5.57;2.40;;;;;;;;;;5055822;28;20461;-79
2023/04/04 12:16:22;;;;;;;5.07;2.75;;;;;;;;;;5053578;28;20088;-77
2023/04/04 12:18:49;;;;;;;3.15;2.17;;;;;;;;;;5061214;28;20169;-76
2023/04/04 12:21:15;;;;;;;5.35;2.90;;;;;;;;;;5051322;28;20057;-77
2023/04/04 12:23:41;;;;;;;6.05;2.30;;;;;;;;;;5042634;28;20049;-77
2023/04/04 12:26:10;;;;;;;4.40;2.72;;;;;;;;;;5039775;28;20434;-78
2023/04/04 12:28:38;;;;;;;5.78;2.40;;;;;;;;;;5061708;28;20191;-77
2023/04/04 12:31:05;;;;;;;5.53;3.08;;;;;;;;;;5062606;28;20057;-78
2023/04/04 12:33:32;;;;;;;4.15;2.53;;;;;;;;;;5062353;28;20466;-77
2023/04/04 12:35:59;;;;;;;5.18;2.17;;;;;;;;;;5061622;28;20059;-78
2023/04/04 12:38:26;;;;;;;5.30;2.85;;;;;;;;;;5062083;28;20084;-77
2023/04/04 12:40:53;;;;;;;3.35;2.60;;;;;;;;;;5061344;28;20146;-77
2023/04/04 12:43:19;;;;;;;4.05;2.55;;;;;;;;;;5056897;28;20442;-77
2023/04/04 12:45:48;;;;;;;7.50;2.70;;;;;;;;;;5046164;28;20060;-77
2023/04/04 12:48:16;;;;;;;4.80;2.60;;;;;;;;;;5060192;28;20479;-77
2023/04/04 12:50:49;;;;;;;3.97;2.30;;;;;;;;;;5059193;28;20843;-77
2023/04/04 12:53:18;;;;;;;5.20;2.60;;;;;;;;;;5061670;28;20552;-81
2023/04/04 12:55:50;;;;;;;4.47;2.55;;;;;;;;;;5059786;28;20504;-79
2023/04/04 12:58:17;;;;;;;3.92;2.60;;;;;;;;;;5051136;28;20549;-80
2023/04/04 13:00:44;;;;;;;4.88;2.20;;;;;;;;;;5050804;28;20174;-79
2023/04/04 13:03:12;;;;;;;3.53;2.47;;;;;;;;;;5056483;28;20057;-78
2023/04/04 13:05:39;;;;;;;7.90;2.53;;;;;;;;;;5058993;28;20461;-79
2023/04/04 13:08:07;;;;;;;5.18;2.78;;;;;;;;;;5060388;28;20053;-79
2023/04/04 13:10:52;;;;;;;3.85;3.15;;;;;;;;;;5061475;28;20060;-78
2023/04/04 13:13:30;;;;;;;6.23;2.57;;;;;;;;;;5045867;28;20461;-79
2023/04/04 13:15:58;;;;;;;5.13;2.47;;;;;;;;;;5041839;28;20273;-79
2023/04/04 13:18:25;;;;;;;4.07;2.65;;;;;;;;;;5042442;28;20554;-79
2023/04/04 13:20:52;;;;;;;6.13;2.50;;;;;;;;;;5042092;28;20530;-80
2023/04/04 13:23:19;;;;;;;4.53;2.38;;;;;;;;;;5046484;28;20580;-78
2023/04/04 13:25:45;;;;;;;4.88;2.65;;;;;;;;;;5060244;28;20148;-79
2023/04/04 13:28:11;;;;;;;2.92;2.20;;;;;;;;;;5062034;28;20400;-80
2023/04/04 13:30:42;;;;;;;5.13;2.90;;;;;;;;;;5059358;28;20128;-77
2023/04/04 13:33:09;;;;;;;4.70;2.60;;;;;;;;;;5048016;28;20049;-77
2023/04/04 13:35:36;;;;;;;5.72;2.70;;;;;;;;;;5052387;28;20147;-77
2023/04/04 13:38:02;;;;;;;5.40;2.58;;;;;;;;;;5057525;28;20499;-78
2023/04/04 13:40:29;;;;;;;6.35;3.00;;;;;;;;;;5056463;28;20079;-80
2023/04/04 13:42:55;;;;;;;4.50;2.53;;;;;;;;;;5060781;28;20103;-77
2023/04/04 13:45:21;;;;;;;4.95;2.65;;;;;;;;;;5060232;28;20049;-77
2023/04/04 13:47:48;;;;;;;4.03;2.72;;;;;;;;;;5060321;28;20643;-76
2023/04/04 13:50:15;;;;;;;8.55;2.78;;;;;;;;;;5060056;28;20502;-76
2023/04/04 13:52:41;;;;;;;3.92;3.05;;;;;;;;;;5047156;28;20558;-77
2023/04/04 13:55:08;;;;;;;5.70;3.00;;;;;;;;;;5056391;28;20144;-79
2023/04/04 13:57:35;;;;;;;5.32;2.80;;;;;;;;;;5048432;28;20283;-81
2023/04/04 14:00:03;;;;;;;3.13;2.40;;;;;;;;;;5050721;28;20077;-75
2023/04/04 14:02:29;;;;;;;6.95;3.10;;;;;;;;;;5061824;28;20485;-76
2023/04/04 14:04:56;;;;;;;3.17;2.15;;;;;;;;;;5058028;28;20053;-80
2023/04/04 14:07:22;;;;;;;4.93;2.45;;;;;;;;;;5055224;28;20076;-81
2023/04/04 14:09:49;;;;;;;5.28;3.35;;;;;;;;;;5055473;28;20052;-83
2023/04/04 14:12:15;;;;;;;5.65;2.80;;;;;;;;;;5058526;28;20589;-78
2023/04/04 14:14:42;;;;;;;4.93;2.83;;;;;;;;;;5060609;28;20132;-78
2023/04/04 14:17:09;;;;;;;5.47;3.22;;;;;;;;;;5062884;28;20907;-77
2023/04/04 14:19:37;;;;;;;3.58;2.38;;;;;;;;;;5062828;28;20081;-79
2023/04/04 14:22:04;;;;;;;6.70;2.95;;;;;;;;;;5059291;28;20861;-82
2023/04/04 14:24:30;;;;;;;4.53;2.55;;;;;;;;;;5051670;28;20115;-81
2023/04/04 14:26:57;;;;;;;6.32;3.00;;;;;;;;;;5053495;28;20057;-83
2023/04/04 14:29:23;;;;;;;9.18;2.78;;;;;;;;;;5058095;28;20609;-87
2023/04/04 14:31:50;;;;;;;5.90;2.95;;;;;;;;;;5054807;28;20123;-74
2023/04/04 14:34:16;;;;;;;6.70;2.83;;;;;;;;;;5059429;28;20494;-81
2023/04/04 14:36:43;;;;;;;5.18;2.75;;;;;;;;;;5048722;28;20506;-80
2023/04/04 14:39:10;;;;;;;5.68;2.67;;;;;;;;;;5055132;28;20586;-80
2023/04/04 14:41:36;;;;;;;5.28;2.75;;;;;;;;;;5052200;28;20113;-81
2023/04/04 14:44:02;;;;;;;4.47;2.67;;;;;;;;;;5063494;28;20480;-77